Time;durP1;ratioP1;P1;durP2;ratioP2;P2;SDS_P1;SDS_P2;PMS_P1;PMS_P2;Temp;Humidity;BMP_temperature;BMP_pressure;BME280_temperature;BME280_humidity;BME280_pressure;Samples;Min_cycle;Max_cycle;Signal;HPM_P1;HPM_P2
2023/01/18 00:00:09;;;;;;;;;;;;;;;15.29;39.10;95464.94;5052904;28;19974;-89
2023/01/18 00:02:35;;;;;;;;;;;;;;;14.84;38.01;95467.03;5053284;28;20373;-89
2023/01/18 00:05:02;;;;;;;;;;;;;;;14.38;38.58;95465.44;5049403;28;20003;-89
2023/01/18 00:07:30;;;;;;;;;;;;;;;16.38;36.82;95463.59;5053828;28;19921;-89
2023/01/18 00:09:56;;;;;;;;;;;;;;;16.80;34.55;95472.50;5050625;28;19921;-89
2023/01/18 00:12:22;;;;;;;;;;;;;;;17.28;33.16;95472.72;5050418;28;19920;-89
2023/01/18 00:14:48;;;;;;;;;;;;;;;16.84;33.80;95468.38;5034255;28;20293;-89
2023/01/18 00:17:14;;;;;;;;;;;;;;;15.70;35.01;95464.19;5039739;28;19928;-89
2023/01/18 00:19:40;;;;;;;;;;;;;;;15.26;35.81;95463.09;5054193;28;19923;-89
2023/01/18 00:22:06;;;;;;;;;;;;;;;15.98;34.25;95451.44;5054180;28;19917;-89
2023/01/18 00:24:32;;;;;;;;;;;;;;;15.83;34.93;95462.19;5052834;28;19943;-89
2023/01/18 00:26:58;;;;;;;;;;;;;;;16.67;33.82;95453.13;5050341;28;19964;-88
2023/01/18 00:29:24;;;;;;;;;;;;;;;16.54;33.39;95446.88;5044329;28;20384;-89
2023/01/18 00:31:50;;;;;;;;;;;;;;;16.99;32.09;95447.25;5049983;28;19932;-90
2023/01/18 00:34:16;;;;;;;;;;;;;;;16.18;34.38;95450.00;5046340;28;19964;-89
2023/01/18 00:36:42;;;;;;;;;;;;;;;15.88;34.42;95445.81;5052882;28;20301;-90
2023/01/18 00:39:08;;;;;;;;;;;;;;;16.24;33.96;95444.69;5050373;28;19931;-89
2023/01/18 00:43:37;;;;;;;;;;;;;;;15.66;34.64;95455.22;5051174;28;19924;-90
2023/01/18 00:44:20;;;;;;;;;;;;;;;15.58;34.70;95451.88;5043805;28;20373;-90
2023/01/18 00:46:48;;;;;;;;;;;;;;;15.35;35.04;95460.44;5051640;28;19951;-91
2023/01/18 00:49:14;;;;;;;;;;;;;;;15.21;35.11;95463.63;5051187;28;20387;-90
2023/01/18 00:51:40;;;;;;;;;;;;;;;15.61;34.88;95462.03;5044076;28;20012;-91
2023/01/18 00:54:06;;;;;;;;;;;;;;;14.76;36.06;95458.16;5052053;28;19966;-90
2023/01/18 00:56:32;;;;;;;;;;;;;;;16.47;33.12;95442.31;5059099;28;20280;-91
2023/01/18 00:58:58;;;;;;;;;;;;;;;14.42;36.66;95433.03;5053146;28;19929;-91
2023/01/18 01:01:24;;;;;;;;;;;;;;;15.31;34.63;95426.59;5050890;28;19916;-92
2023/01/18 01:06:44;;;;;;;;;;;;;;;14.27;35.79;95418.00;5045433;28;19928;-92
2023/01/18 01:09:10;;;;;;;;;;;;;;;14.66;36.22;95433.56;5044164;28;20411;-91
2023/01/18 01:11:36;;;;;;;;;;;;;;;14.37;36.54;95433.56;5050745;28;19961;-92
2023/01/18 01:27:45;;;;;;;;;;;;;;;15.01;35.33;95391.94;5049225;28;19928;-91
2023/01/18 01:30:11;;;;;;;;;;;;;;;15.54;34.09;95379.31;5049261;28;19917;-91
2023/01/18 01:32:37;;;;;;;;;;;;;;;14.41;36.27;95381.78;5051343;28;19924;-92
2023/01/18 01:35:04;;;;;;;;;;;;;;;15.24;34.92;95383.34;5051547;28;19982;-91
2023/01/18 01:37:30;;;;;;;;;;;;;;;16.73;31.99;95379.31;5053109;28;19920;-91
2023/01/18 01:39:56;;;;;;;;;;;;;;;17.13;31.61;95384.97;5054883;28;19916;-92
2023/01/18 01:42:22;;;;;;;;;;;;;;;17.01;31.47;95391.38;5051107;28;19917;-91
2023/01/18 01:44:50;;;;;;;;;;;;;;;19.12;28.28;95385.53;5049156;28;19937;-92
2023/01/18 01:47:39;;;;;;;;;;;;;;;20.37;26.32;95386.81;5045788;28;19920;-91
2023/01/18 01:50:17;;;;;;;;;;;;;;;18.91;28.06;95388.47;5046056;28;19917;-92
2023/01/18 01:52:44;;;;;;;;;;;;;;;18.38;29.00;95393.53;5044534;28;19921;-91
2023/01/18 01:55:14;;;;;;;;;;;;;;;18.52;28.88;95390.97;5049165;28;19921;-92
2023/01/18 01:57:48;;;;;;;;;;;;;;;17.95;29.55;95391.72;5049707;28;20388;-91
2023/01/18 02:00:18;;;;;;;;;;;;;;;16.52;31.73;95386.38;5049967;28;19920;-90
2023/01/18 02:02:46;;;;;;;;;;;;;;;17.92;29.79;95367.66;5055416;28;19959;-91
2023/01/18 02:05:14;;;;;;;;;;;;;;;16.67;31.86;95358.16;5051061;28;20019;-91
2023/01/18 02:07:40;;;;;;;;;;;;;;;16.10;32.71;95348.28;5049865;28;19926;-92
2023/01/18 02:10:06;;;;;;;;;;;;;;;16.17;32.56;95334.19;5046195;28;19982;-91
2023/01/18 02:12:34;;;;;;;;;;;;;;;15.13;34.85;95324.88;5054928;28;19927;-92
2023/01/18 02:15:00;;;;;;;;;;;;;;;14.81;34.89;95294.69;5047421;28;19929;-92
2023/01/18 02:17:45;;;;;;;;;;;;;;;14.43;35.97;95294.59;5046363;28;19921;-92
2023/01/18 02:20:30;;;;;;;;;;;;;;;14.22;36.07;95308.16;5052196;28;19986;-93
2023/01/18 02:23:02;;;;;;;;;;;;;;;15.21;34.55;95328.19;5054439;28;19925;-93
2023/01/18 02:25:28;;;;;;;;;;;;;;;14.84;35.07;95324.16;5043219;28;19966;-92
2023/01/18 02:28:17;;;;;;;;;;;;;;;14.92;35.10;95308.16;5045490;28;20385;-93
2023/01/18 02:31:01;;;;;;;;;;;;;;;15.78;33.65;95314.13;5052111;28;19935;-93
2023/01/18 02:33:31;;;;;;;;;;;;;;;13.86;36.98;95317.34;5051030;28;19963;-92
2023/01/18 02:35:59;;;;;;;;;;;;;;;15.39;34.28;95316.59;5050721;28;20016;-93
2023/01/18 02:38:38;;;;;;;;;;;;;;;15.87;33.17;95310.69;5053140;28;19920;-93
2023/01/18 02:41:10;;;;;;;;;;;;;;;14.45;36.06;95307.94;5048956;28;19921;-93
2023/01/18 02:46:30;;;;;;;;;;;;;;;16.23;32.67;95322.09;5052132;28;20538;-92
2023/01/18 02:48:57;;;;;;;;;;;;;;;17.99;29.83;95317.41;5048996;28;19924;-93
2023/01/18 02:51:23;;;;;;;;;;;;;;;15.40;33.28;95326.44;5049697;28;19947;-91
2023/01/18 02:53:49;;;;;;;;;;;;;;;16.00;32.99;95333.56;5042764;28;19921;-92
2023/01/18 02:56:18;;;;;;;;;;;;;;;15.15;34.46;95343.75;5051744;28;19921;-93
2023/01/18 02:58:50;;;;;;;;;;;;;;;18.10;29.62;95355.81;5053110;28;19936;-92
2023/01/18 03:01:29;;;;;;;;;;;;;;;18.97;28.46;95361.63;5050600;28;19947;-93
2023/01/18 03:03:57;;;;;;;;;;;;;;;20.50;26.46;95373.41;5043902;28;20388;-92
2023/01/18 03:06:27;;;;;;;;;;;;;;;17.48;29.82;95377.31;5044012;28;19921;-92
2023/01/18 03:08:54;;;;;;;;;;;;;;;18.94;28.12;95362.53;5039361;28;19960;-92
2023/01/18 03:11:33;;;;;;;;;;;;;;;18.91;28.25;95363.44;5047579;28;20011;-92
2023/01/18 03:13:58;;;;;;;;;;;;;;;20.64;26.14;95362.31;5053393;28;19925;-92
2023/01/18 03:16:30;;;;;;;;;;;;;;;19.45;27.01;95366.16;5052008;28;20031;-92
2023/01/18 03:19:03;;;;;;;;;;;;;;;19.84;26.67;95362.31;5047353;28;19924;-91
2023/01/18 03:21:34;;;;;;;;;;;;;;;18.11;29.28;95363.69;5060647;28;20342;-91
2023/01/18 03:24:03;;;;;;;;;;;;;;;18.79;28.48;95367.94;5046948;28;19935;-92
2023/01/18 03:26:30;;;;;;;;;;;;;;;19.70;27.06;95354.63;5047111;28;19933;-91
2023/01/18 03:34:31;;;;;;;;;;;;;;;19.62;27.32;95327.63;5050160;28;19974;-91
2023/01/18 03:36:59;;;;;;;;;;;;;;;19.62;27.12;95322.06;5047748;28;19920;-91
2023/01/18 03:39:29;;;;;;;;;;;;;;;18.69;28.41;95330.28;5039562;28;19963;-91
2023/01/18 03:42:00;;;;;;;;;;;;;;;19.40;27.68;95333.41;5053990;28;19921;-90
2023/01/18 03:44:46;;;;;;;;;;;;;;;20.02;26.68;95339.19;5050727;28;19971;-91
2023/01/18 03:47:12;;;;;;;;;;;;;;;18.43;28.97;95334.56;5045808;28;19967;-90
2023/01/18 03:49:38;;;;;;;;;;;;;;;18.16;29.21;95323.44;5045769;28;19936;-91
2023/01/18 03:52:19;;;;;;;;;;;;;;;16.69;31.59;95306.63;5044517;28;19925;-92
2023/01/18 03:54:50;;;;;;;;;;;;;;;15.81;33.50;95299.41;5047417;28;20381;-92
2023/01/18 03:57:25;;;;;;;;;;;;;;;16.08;32.83;95287.81;5048523;28;19982;-92
2023/01/18 03:59:51;;;;;;;;;;;;;;;15.56;33.84;95277.34;5044158;28;19972;-91
2023/01/18 04:02:17;;;;;;;;;;;;;;;16.67;32.02;95288.91;5048470;28;19978;-91
2023/01/18 04:04:43;;;;;;;;;;;;;;;18.46;29.02;95292.78;5050424;28;19928;-92
2023/01/18 04:07:09;;;;;;;;;;;;;;;19.20;27.84;95294.19;5048467;28;19916;-91
2023/01/18 04:09:35;;;;;;;;;;;;;;;18.10;29.06;95289.97;5051880;28;19967;-92
2023/01/18 04:12:01;;;;;;;;;;;;;;;17.95;29.72;95283.44;5045620;28;20007;-91
2023/01/18 04:14:27;;;;;;;;;;;;;;;17.97;29.53;95286.53;5051452;28;19960;-91
2023/01/18 04:16:53;;;;;;;;;;;;;;;19.69;27.31;95277.94;5046001;28;19921;-91
2023/01/18 04:19:19;;;;;;;;;;;;;;;17.88;29.49;95278.97;5044992;28;19933;-91
2023/01/18 04:21:45;;;;;;;;;;;;;;;16.91;31.43;95284.44;5052193;28;19975;-90
2023/01/18 04:24:11;;;;;;;;;;;;;;;16.11;32.87;95273.09;5050061;28;19921;-91
2023/01/18 04:26:37;;;;;;;;;;;;;;;16.13;32.76;95258.81;5042210;28;20258;-91
2023/01/18 04:29:04;;;;;;;;;;;;;;;16.61;32.21;95263.03;5046688;28;19929;-91
2023/01/18 04:31:30;;;;;;;;;;;;;;;16.50;32.29;95266.16;5047029;28;19925;-91
2023/01/18 04:33:56;;;;;;;;;;;;;;;19.06;28.87;95280.94;5048181;28;19920;-90
2023/01/18 04:36:22;;;;;;;;;;;;;;;20.79;25.40;95277.94;5047578;28;20392;-91
2023/01/18 04:38:51;;;;;;;;;;;;;;;20.35;25.71;95266.72;5047517;28;20015;-90
2023/01/18 04:41:17;;;;;;;;;;;;;;;19.76;26.83;95274.81;5047632;28;20415;-90
2023/01/18 04:43:43;;;;;;;;;;;;;;;19.53;27.09;95272.78;5051822;28;19925;-91
2023/01/18 04:46:09;;;;;;;;;;;;;;;20.76;25.66;95282.44;5055618;28;19920;-91
2023/01/18 04:48:35;;;;;;;;;;;;;;;21.44;24.87;95287.94;5044838;28;20289;-90
2023/01/18 04:51:01;;;;;;;;;;;;;;;21.94;24.17;95287.47;5047341;28;19962;-91
2023/01/18 04:53:27;;;;;;;;;;;;;;;21.76;24.34;95289.72;5049017;28;19927;-91
2023/01/18 04:55:53;;;;;;;;;;;;;;;21.62;24.42;95284.94;5047876;28;19921;-90
2023/01/18 04:58:19;;;;;;;;;;;;;;;18.10;29.12;95287.19;5052031;28;19925;-91
2023/01/18 05:00:45;;;;;;;;;;;;;;;20.02;26.70;95281.44;5052989;28;20368;-91
2023/01/18 05:03:12;;;;;;;;;;;;;;;20.13;26.46;95292.06;5045838;28;19921;-91
2023/01/18 05:05:38;;;;;;;;;;;;;;;21.25;25.07;95296.53;5051988;28;19932;-91
2023/01/18 05:08:04;;;;;;;;;;;;;;;22.23;24.17;95297.00;5049295;28;19974;-92
2023/01/18 05:10:30;;;;;;;;;;;;;;;22.23;23.77;95300.56;5049107;28;19921;-90
2023/01/18 05:12:56;;;;;;;;;;;;;;;22.99;23.11;95306.78;5050363;28;20317;-90
2023/01/18 05:15:22;;;;;;;;;;;;;;;23.08;22.50;95307.41;5049392;28;19927;-89
2023/01/18 05:17:48;;;;;;;;;;;;;;;22.16;23.66;95294.63;5053108;28;19925;-89
2023/01/18 05:20:14;;;;;;;;;;;;;;;20.60;25.68;95291.25;5055075;28;20002;-89
2023/01/18 05:22:40;;;;;;;;;;;;;;;19.64;27.11;95278.59;5048233;28;19921;-91
2023/01/18 05:25:06;;;;;;;;;;;;;;;18.40;28.88;95279.94;5051537;28;20434;-90
2023/01/18 05:27:32;;;;;;;;;;;;;;;18.00;29.43;95279.28;5051540;28;19921;-92
2023/01/18 05:29:58;;;;;;;;;;;;;;;19.01;28.12;95290.69;5045482;28;19925;-92
2023/01/18 05:32:24;;;;;;;;;;;;;;;20.12;26.46;95304.44;5048214;28;19927;-93
2023/01/18 05:34:50;;;;;;;;;;;;;;;20.74;25.77;95298.88;5048150;28;20008;-91
2023/01/18 05:37:16;;;;;;;;;;;;;;;21.64;24.63;95313.91;5040749;28;20033;-92
2023/01/18 05:39:42;;;;;;;;;;;;;;;21.39;24.79;95305.38;5047887;28;20428;-89
2023/01/18 05:42:08;;;;;;;;;;;;;;;21.36;24.69;95298.72;5048602;28;19925;-89
2023/01/18 05:44:34;;;;;;;;;;;;;;;20.11;26.65;95280.63;5048222;28;20742;-93
2023/01/18 05:47:00;;;;;;;;;;;;;;;17.86;29.58;95275.91;5051608;28;20290;-91
2023/01/18 05:49:29;;;;;;;;;;;;;;;16.72;32.04;95286.34;5051494;28;19921;-91
2023/01/18 05:51:55;;;;;;;;;;;;;;;16.47;32.17;95294.75;5052440;28;19916;-89
2023/01/18 05:54:21;;;;;;;;;;;;;;;19.20;28.09;95283.84;5051166;28;19944;-87
2023/01/18 05:56:47;;;;;;;;;;;;;;;16.98;31.41;95287.72;5050723;28;20369;-93
2023/01/18 05:59:14;;;;;;;;;;;;;;;15.62;33.77;95285.84;5049044;28;19928;-94
2023/01/18 06:01:41;;;;;;;;;;;;;;;15.55;33.83;95281.31;5037894;28;19917;-92
2023/01/18 06:04:07;;;;;;;;;;;;;;;17.07;31.36;95298.88;5039840;28;20003;-92
2023/01/18 06:06:33;;;;;;;;;;;;;;;18.39;29.36;95287.50;5055534;28;19939;-92
2023/01/18 06:09:00;;;;;;;;;;;;;;;17.63;30.24;95295.09;5056341;28;19912;-92
2023/01/18 06:11:26;;;;;;;;;;;;;;;17.83;29.85;95282.34;5065805;28;19991;-92
2023/01/18 06:13:52;;;;;;;;;;;;;;;18.25;29.45;95285.34;5057547;28;20403;-92
2023/01/18 06:16:18;;;;;;;;;;;;;;;18.79;28.75;95286.56;5056033;28;20373;-92
2023/01/18 06:18:44;;;;;;;;;;;;;;;18.94;28.31;95290.25;5056236;28;20369;-92
2023/01/18 06:21:10;;;;;;;;;;;;;;;20.16;26.64;95288.34;5059046;28;20403;-93
2023/01/18 06:23:37;;;;;;;;;;;;;;;20.01;26.80;95298.63;5071157;28;20293;-93
2023/01/18 06:26:03;;;;;;;;;;;;;;;20.31;26.46;95297.53;5056269;28;19916;-92
2023/01/18 06:28:29;;;;;;;;;;;;;;;20.63;25.88;95305.00;5056417;28;19924;-92
2023/01/18 06:30:55;;;;;;;;;;;;;;;21.71;24.66;95324.69;5055415;28;19917;-92
2023/01/18 06:33:22;;;;;;;;;;;;;;;22.51;23.74;95326.84;5055541;28;19923;-92
2023/01/18 06:35:48;;;;;;;;;;;;;;;22.72;23.28;95312.88;5055903;28;19920;-93
2023/01/18 06:38:14;;;;;;;;;;;;;;;20.41;25.75;95301.03;5058024;28;19923;-92
2023/01/18 06:40:40;;;;;;;;;;;;;;;18.77;28.31;95308.50;5052150;28;19927;-92
2023/01/18 06:43:09;;;;;;;;;;;;;;;19.89;27.18;95297.63;5056213;28;19949;-92
2023/01/18 06:45:35;;;;;;;;;;;;;;;21.08;25.57;95298.25;5055686;28;19952;-92
2023/01/18 06:48:01;;;;;;;;;;;;;;;21.64;24.80;95307.53;5056469;28;19928;-92
2023/01/18 06:50:27;;;;;;;;;;;;;;;22.25;24.05;95300.06;5056053;28;19924;-92
2023/01/18 06:52:54;;;;;;;;;;;;;;;22.43;23.66;95303.34;5055920;28;19917;-92
2023/01/18 06:55:20;;;;;;;;;;;;;;;22.22;23.94;95310.19;5056579;28;19917;-92
2023/01/18 06:57:47;;;;;;;;;;;;;;;22.58;24.05;95328.44;5054678;28;19976;-92
2023/01/18 07:00:13;;;;;;;;;;;;;;;23.30;23.09;95332.84;5055987;28;19917;-92
2023/01/18 07:02:39;;;;;;;;;;;;;;;23.29;22.89;95336.88;5055347;28;20368;-92
2023/01/18 07:05:05;;;;;;;;;;;;;;;23.70;22.76;95343.13;5055910;28;20003;-93
2023/01/18 07:07:31;;;;;;;;;;;;;;;24.21;21.91;95349.88;5055355;28;19917;-92
2023/01/18 07:09:57;;;;;;;;;;;;;;;24.35;21.62;95357.38;5055341;28;20388;-92
2023/01/18 07:12:23;;;;;;;;;;;;;;;24.55;21.73;95354.44;5055711;28;19920;-92
2023/01/18 07:14:50;;;;;;;;;;;;;;;24.72;21.45;95352.44;5054792;28;19979;-92
2023/01/18 07:17:16;;;;;;;;;;;;;;;24.92;21.50;95346.72;5055202;28;20254;-92
2023/01/18 07:19:43;;;;;;;;;;;;;;;24.82;20.74;95348.19;5054710;28;19970;-93
2023/01/18 07:22:09;;;;;;;;;;;;;;;24.21;21.29;95347.09;5055357;28;19956;-92
2023/01/18 07:24:35;;;;;;;;;;;;;;;23.93;21.79;95347.66;5055654;28;19923;-92
2023/01/18 07:27:02;;;;;;;;;;;;;;;24.09;21.88;95351.06;5055335;28;19919;-91
2023/01/18 07:29:28;;;;;;;;;;;;;;;24.20;21.41;95351.16;5059604;28;19963;-92
2023/01/18 07:31:54;;;;;;;;;;;;;;;24.17;21.40;95350.13;5067467;28;19992;-92
2023/01/18 07:34:20;;;;;;;;;;;;;;;24.19;21.68;95356.00;5054709;28;19920;-92
2023/01/18 07:36:46;;;;;;;;;;;;;;;24.35;21.56;95357.38;5070219;28;19917;-92
2023/01/18 07:39:12;;;;;;;;;;;;;;;24.57;21.79;95360.31;5055192;28;19921;-92
2023/01/18 07:41:38;;;;;;;;;;;;;;;24.81;21.20;95374.72;5054819;28;19928;-92
2023/01/18 07:44:04;;;;;;;;;;;;;;;24.70;21.16;95360.59;5055092;28;19925;-92
2023/01/18 07:46:30;;;;;;;;;;;;;;;24.60;21.33;95351.63;5060157;28;19917;-92
2023/01/18 07:48:57;;;;;;;;;;;;;;;24.64;20.88;95357.75;5066853;28;19917;-92
2023/01/18 07:51:23;;;;;;;;;;;;;;;24.63;20.89;95364.66;5054764;28;19955;-93
2023/01/18 07:53:53;;;;;;;;;;;;;;;24.51;20.59;95357.47;5054855;28;20012;-92
2023/01/18 07:56:20;;;;;;;;;;;;;;;23.91;22.15;95352.22;5048249;28;19917;-92
2023/01/18 07:58:46;;;;;;;;;;;;;;;24.33;21.19;95362.72;5035161;28;19917;-93
2023/01/18 08:01:16;;;;;;;;;;;;;;;24.68;20.89;95352.69;5051853;28;19917;-93
2023/01/18 08:03:44;;;;;;;;;;;;;;;24.03;21.32;95349.00;5054855;28;19916;-93
2023/01/18 08:06:12;;;;;;;;;;;;;;;23.15;22.19;95332.16;5053995;28;19917;-93
2023/01/18 08:08:38;;;;;;;;;;;;;;;23.02;22.63;95337.38;5054829;28;19921;-92
2023/01/18 08:11:05;;;;;;;;;;;;;;;23.20;22.54;95330.69;5054361;28;19923;-93
2023/01/18 08:13:31;;;;;;;;;;;;;;;23.45;22.64;95338.34;5054051;28;19950;-92
2023/01/18 08:15:58;;;;;;;;;;;;;;;23.80;22.11;95329.72;5054291;28;20007;-93
2023/01/18 08:18:24;;;;;;;;;;;;;;;24.20;21.26;95337.91;5054299;28;19917;-93
2023/01/18 08:20:51;;;;;;;;;;;;;;;24.56;21.25;95342.69;5062121;28;20291;-93
2023/01/18 08:23:17;;;;;;;;;;;;;;;24.87;21.12;95347.44;5063433;28;20284;-93
2023/01/18 08:25:43;;;;;;;;;;;;;;;25.02;20.88;95350.81;5054283;28;19924;-93
2023/01/18 08:28:10;;;;;;;;;;;;;;;25.14;20.74;95368.44;5054579;28;20268;-93
2023/01/18 08:30:37;;;;;;;;;;;;;;;25.25;20.52;95366.44;5053518;28;19917;-94
2023/01/18 08:33:03;;;;;;;;;;;;;;;25.35;20.62;95361.34;5054129;28;19917;-94
2023/01/18 08:35:34;;;;;;;;;;;;;;;25.41;20.33;95359.34;5052657;28;20055;-94
2023/01/18 08:38:00;;;;;;;;;;;;;;;25.42;20.02;95374.91;5063005;28;19920;-93
2023/01/18 08:40:26;;;;;;;;;;;;;;;25.42;19.80;95381.28;5061488;28;19924;-94
2023/01/18 08:42:59;;;;;;;;;;;;;;;25.03;20.12;95377.63;5053938;28;19917;-94
2023/01/18 08:45:25;;;;;;;;;;;;;;;24.54;20.65;95378.91;5052932;28;19975;-93
2023/01/18 08:47:56;;;;;;;;;;;;;;;24.15;20.98;95380.72;5054329;28;19948;-94
2023/01/18 08:50:22;;;;;;;;;;;;;;;23.97;21.17;95384.59;5054023;28;19996;-93
2023/01/18 08:52:51;;;;;;;;;;;;;;;23.42;21.69;95381.34;5053915;28;20443;-92
2023/01/18 08:55:17;;;;;;;;;;;;;;;23.38;21.89;95380.78;5046232;28;20061;-93
2023/01/18 08:57:43;;;;;;;;;;;;;;;23.27;22.06;95375.03;5046328;28;19917;-92
2023/01/18 09:00:10;;;;;;;;;;;;;;;23.30;22.19;95385.25;5054253;28;19924;-93
2023/01/18 09:02:36;;;;;;;;;;;;;;;23.42;21.84;95386.94;5053703;28;19917;-92
2023/01/18 09:05:02;;;;;;;;;;;;;;;23.39;21.97;95393.50;5033853;28;19921;-92
2023/01/18 09:07:28;;;;;;;;;;;;;;;23.95;21.85;95403.19;5036929;28;20126;-92
2023/01/18 09:09:54;;;;;;;;;;;;;;;24.43;21.31;95392.88;5053758;28;19975;-92
2023/01/18 09:12:20;;;;;;;;;;;;;;;24.77;20.98;95387.44;5065984;28;19987;-93
2023/01/18 09:14:46;;;;;;;;;;;;;;;24.59;20.52;95383.00;5058839;28;20049;-92
2023/01/18 09:17:13;;;;;;;;;;;;;;;23.93;21.17;95370.06;5053695;28;19988;-91
2023/01/18 09:19:39;;;;;;;;;;;;;;;23.43;21.93;95368.09;5053794;28;19978;-92
2023/01/18 09:22:05;;;;;;;;;;;;;;;23.42;22.52;95372.94;5053619;28;19913;-91
2023/01/18 09:24:31;;;;;;;;;;;;;;;23.84;22.70;95384.25;5053230;28;19917;-92
2023/01/18 09:26:57;;;;;;;;;;;;;;;24.36;22.03;95404.56;5053888;28;19974;-92
2023/01/18 09:29:23;;;;;;;;;;;;;;;24.65;21.63;95421.03;5053940;28;20376;-92
2023/01/18 09:31:52;;;;;;;;;;;;;;;24.79;21.54;95421.38;5053299;28;19924;-92
2023/01/18 09:34:18;;;;;;;;;;;;;;;24.91;21.00;95412.53;5052001;28;19917;-92
2023/01/18 09:36:44;;;;;;;;;;;;;;;24.71;32.71;95421.09;5050331;28;19916;-93
2023/01/18 09:39:10;;;;;;;;;;;;;;;23.96;33.10;95427.94;5053162;28;20377;-94
2023/01/18 09:41:38;;;;;;;;;;;;;;;23.14;32.41;95425.03;5053528;28;19924;-94
2023/01/18 09:44:17;;;;;;;;;;;;;;;23.41;34.60;95432.25;5056885;28;20405;-93
2023/01/18 09:46:44;;;;;;;;;;;;;;;23.85;35.05;95441.09;5057499;28;20277;-93
2023/01/18 09:49:28;;;;;;;;;;;;;;;24.16;32.81;95454.34;5056668;28;20385;-93
2023/01/18 09:52:04;;;;;;;;;;;;;;;24.41;30.97;95461.94;5057096;28;19917;-94
2023/01/18 09:54:50;;;;;;;;;;;;;;;24.37;29.50;95464.19;5042703;28;19917;-93
2023/01/18 09:57:36;;;;;;;;;;;;;;;24.14;29.29;95460.47;5025197;28;20420;-93
2023/01/18 10:00:11;;;;;;;;;;;;;;;24.26;25.40;95469.72;5053204;28;19928;-93
2023/01/18 10:02:38;;;;;;;;;;;;;;;24.04;25.31;95468.25;5057103;28;19924;-94
2023/01/18 10:05:08;;;;;;;;;;;;;;;23.94;24.71;95466.88;5046136;28;19964;-93
2023/01/18 10:07:37;;;;;;;;;;;;;;;23.39;24.22;95460.72;5056528;28;19938;-94
2023/01/18 10:10:04;;;;;;;;;;;;;;;23.58;24.85;95458.38;5056996;28;19917;-93
2023/01/18 10:12:30;;;;;;;;;;;;;;;23.45;24.06;95457.97;5056595;28;20403;-93
2023/01/18 10:15:16;;;;;;;;;;;;;;;23.49;24.55;95461.34;5056241;28;19993;-93
2023/01/18 10:17:43;;;;;;;;;;;;;;;24.09;23.84;95466.00;5054682;28;19921;-93
2023/01/18 10:20:14;;;;;;;;;;;;;;;24.38;23.62;95480.53;5057201;28;19917;-93
2023/01/18 10:22:47;;;;;;;;;;;;;;;24.64;22.46;95489.63;5056173;28;19917;-93
2023/01/18 10:25:16;;;;;;;;;;;;;;;24.81;22.51;95481.34;5056033;28;20372;-93
2023/01/18 10:27:57;;;;;;;;;;;;;;;24.78;22.70;95490.78;5056486;28;19916;-93
2023/01/18 10:30:42;;;;;;;;;;;;;;;24.88;22.52;95480.13;5056745;28;19924;-93
2023/01/18 10:33:14;;;;;;;;;;;;;;;25.02;22.54;95485.56;5055947;28;20388;-94
2023/01/18 10:35:44;;;;;;;;;;;;;;;25.04;22.17;95491.44;5055813;28;20258;-94
2023/01/18 10:38:15;;;;;;;;;;;;;;;25.13;22.54;95496.88;5056364;28;19917;-93
2023/01/18 10:40:42;;;;;;;;;;;;;;;25.21;22.57;95508.38;5056349;28;19917;-93
2023/01/18 10:43:11;;;;;;;;;;;;;;;24.85;22.21;95509.97;5054560;28;19921;-93
2023/01/18 10:45:37;;;;;;;;;;;;;;;25.04;22.04;95513.91;5055717;28;19921;-94
2023/01/18 10:48:15;;;;;;;;;;;;;;;24.79;21.88;95516.81;5055938;28;19921;-94
2023/01/18 10:50:46;;;;;;;;;;;;;;;24.94;22.41;95518.19;5055830;28;19917;-94
2023/01/18 10:53:32;;;;;;;;;;;;;;;25.08;22.84;95513.69;5044687;28;19920;-94
2023/01/18 10:56:01;;;;;;;;;;;;;;;24.63;22.45;95515.41;5055866;28;20397;-94
2023/01/18 10:58:29;;;;;;;;;;;;;;;24.67;22.69;95527.16;5052814;28;19921;-93
2023/01/18 11:00:56;;;;;;;;;;;;;;;24.91;22.64;95538.06;5035707;28;20437;-91
2023/01/18 11:03:25;;;;;;;;;;;;;;;24.97;22.57;95542.44;5051981;28;19916;-91
2023/01/18 11:05:51;;;;;;;;;;;;;;;24.40;22.67;95547.34;5052367;28;19987;-94
2023/01/18 11:08:30;;;;;;;;;;;;;;;23.57;23.84;95555.63;5052347;28;20019;-94
2023/01/18 11:11:04;;;;;;;;;;;;;;;22.82;24.58;95560.44;5046830;28;19920;-95
2023/01/18 11:13:41;;;;;;;;;;;;;;;23.25;24.09;95559.53;5048366;28;20423;-93
2023/01/18 11:16:17;;;;;;;;;;;;;;;23.10;24.50;95558.81;5053961;28;20400;-93
2023/01/18 11:18:54;;;;;;;;;;;;;;;23.53;23.18;95571.09;5055091;28;20327;-92
2023/01/18 11:21:20;;;;;;;;;;;;;;;23.09;23.39;95576.88;5055055;28;19916;-93
2023/01/18 11:23:48;;;;;;;;;;;;;;;23.29;23.98;95576.91;5053555;28;19921;-93
2023/01/18 11:26:16;;;;;;;;;;;;;;;23.08;24.15;95584.47;5055844;28;20368;-93
2023/01/18 11:28:44;;;;;;;;;;;;;;;23.02;24.15;95585.66;5053288;28;20015;-91
2023/01/18 11:31:21;;;;;;;;;;;;;;;23.39;23.98;95592.31;5045127;28;19920;-92
2023/01/18 11:33:54;;;;;;;;;;;;;;;24.07;23.13;95589.84;5048698;28;19928;-93
2023/01/18 11:36:32;;;;;;;;;;;;;;;23.90;23.49;95592.44;5054630;28;19923;-94
2023/01/18 11:39:17;;;;;;;;;;;;;;;24.36;23.15;95594.50;5043574;28;19997;-92
2023/01/18 11:41:43;;;;;;;;;;;;;;;23.92;23.22;95595.53;5051162;28;19921;-93
2023/01/18 11:44:17;;;;;;;;;;;;;;;23.62;23.97;95602.56;5041654;28;19932;-92
2023/01/18 11:46:46;;;;;;;;;;;;;;;23.62;23.96;95613.75;5042246;28;20447;-92
2023/01/18 11:49:20;;;;;;;;;;;;;;;23.11;24.30;95610.72;5046944;28;19928;-93
2023/01/18 11:51:56;;;;;;;;;;;;;;;23.51;24.08;95613.63;5043330;28;20330;-92
2023/01/18 11:54:27;;;;;;;;;;;;;;;23.59;23.78;95619.59;5049561;28;19978;-91
2023/01/18 11:56:55;;;;;;;;;;;;;;;23.97;24.54;95611.63;5049864;28;19917;-93
2023/01/18 11:59:28;;;;;;;;;;;;;;;22.73;25.65;95617.28;5052141;28;19974;-91
2023/01/18 12:01:54;;;;;;;;;;;;;;;21.34;27.55;95630.56;5055540;28;19913;-92
2023/01/18 12:04:35;;;;;;;;;;;;;;;21.34;28.11;95645.31;5047529;28;19916;-94
2023/01/18 12:07:05;;;;;;;;;;;;;;;22.55;25.76;95649.00;5050543;28;19962;-92
2023/01/18 12:09:31;;;;;;;;;;;;;;;22.81;25.21;95660.38;5052721;28;19921;-92
2023/01/18 12:12:29;;;;;;;;;;;;;;;22.45;26.25;95655.91;5050522;28;19937;-93
2023/01/18 12:15:12;;;;;;;;;;;;;;;21.85;27.32;95652.75;5019308;28;19925;-91
2023/01/18 12:17:38;;;;;;;;;;;;;;;22.28;25.48;95668.06;5041677;28;19925;-92
2023/01/18 12:20:15;;;;;;;;;;;;;;;22.30;25.91;95677.50;5049476;28;20284;-91
2023/01/18 12:22:47;;;;;;;;;;;;;;;23.52;24.94;95688.00;5037820;28;20365;-92
2023/01/18 12:25:34;;;;;;;;;;;;;;;23.44;24.49;95694.47;5054260;28;20298;-92
2023/01/18 12:28:16;;;;;;;;;;;;;;;24.00;23.81;95696.78;5049509;28;19962;-93
2023/01/18 12:30:42;;;;;;;;;;;;;;;23.11;25.32;95703.88;5055195;28;20007;-91
2023/01/18 12:33:15;;;;;;;;;;;;;;;22.15;26.23;95703.91;5050292;28;19921;-93
2023/01/18 12:35:55;;;;;;;;;;;;;;;22.08;26.46;95698.69;5049140;28;19956;-91
2023/01/18 12:38:22;;;;;;;;;;;;;;;22.29;26.00;95697.53;5044550;28;19927;-91
2023/01/18 12:40:48;;;;;;;;;;;;;;;22.53;25.67;95712.25;5050881;28;19932;-90
2023/01/18 12:43:35;;;;;;;;;;;;;;;22.40;25.96;95723.72;5045468;28;19921;-91
2023/01/18 12:46:10;;;;;;;;;;;;;;;22.05;26.01;95731.13;5048294;28;19921;-91
2023/01/18 12:48:36;;;;;;;;;;;;;;;21.83;26.86;95733.41;5040053;28;19917;-93
2023/01/18 12:51:08;;;;;;;;;;;;;;;22.91;25.59;95736.59;5050664;28;20261;-92
2023/01/18 12:53:40;;;;;;;;;;;;;;;23.19;24.61;95737.84;5051996;28;19917;-92
2023/01/18 12:56:11;;;;;;;;;;;;;;;23.30;24.85;95746.41;5046696;28;19986;-96
2023/01/18 12:58:38;;;;;;;;;;;;;;;23.72;24.33;95755.25;5051489;28;19920;-94
2023/01/18 13:01:06;;;;;;;;;;;;;;;23.60;24.43;95756.34;5050248;28;19917;-92
2023/01/18 13:03:40;;;;;;;;;;;;;;;23.06;24.70;95766.13;5053496;28;19921;-92
2023/01/18 13:06:07;;;;;;;;;;;;;;;23.48;24.39;95768.63;5045187;28;19917;-91
2023/01/18 13:08:43;;;;;;;;;;;;;;;24.16;24.49;95782.38;5051766;28;20331;-93
2023/01/18 13:11:16;;;;;;;;;;;;;;;24.41;23.29;95792.91;5043710;28;19921;-90
2023/01/18 13:13:43;;;;;;;;;;;;;;;24.05;23.74;95802.59;5040401;28;19932;-92
2023/01/18 13:16:12;;;;;;;;;;;;;;;24.20;23.55;95802.59;5051711;28;19930;-93
2023/01/18 13:18:41;;;;;;;;;;;;;;;23.92;23.98;95819.00;5054660;28;19932;-92
2023/01/18 13:21:26;;;;;;;;;;;;;;;23.80;24.46;95820.84;5057798;28;20376;-92